Flight Track Log - Related Links

Times and Time Zones

All times are in EDT time to prevent confusion due to time zone crossing. See the SKW6330 flight status page for this flight to view local times or setup timezone preferences in your user account.

Time Position Orientation Groundspeed Altitude Reporting Facility
EDT Latitude Longitude Course Direction KTS MPH feet Rate Location/Type
Fri 09:16:39 AM 43.1086 -89.3536 264° West 127 146 2,800  Level Minneapolis Center
Fri 09:17:40 AM 43.1039 -89.4200 264° West 171 197 4,800 2,244 Climbing Minneapolis Center
Fri 09:18:42 AM 43.1033 -89.5064 270° West 212 244 7,400 2,766 Climbing Minneapolis Center
Fri 09:19:48 AM 43.1050 -89.6161 271° West 242 278 10,700 2,625 Climbing Chicago Center
Fri 09:20:50 AM 43.1072 -89.7183 272° West 261 300 13,000 1,839 Climbing Chicago Center
Fri 09:21:52 AM 43.1078 -89.8325 270° West 291 335 14,500 1,645 Climbing Chicago Center
Fri 09:22:54 AM 43.1094 -89.9717 271° West 324 373 16,400 1,790 Climbing Chicago Center
Fri 09:23:56 AM 43.1122 -90.0964 272° West 331 381 18,200 1,790 Climbing Chicago Center
Fri 09:24:58 AM 43.1117 -90.2175 270° West 321 369 20,100 1,694 Climbing Chicago Center
Fri 09:26:00 AM 43.1131 -90.3372 271° West 323 372 21,700 1,561 Climbing Chicago Center
Fri 09:27:01 AM 43.1142 -90.4811 271° West 319 367 23,300 1,122 Climbing Chicago Center
Fri 09:28:03 AM 43.1156 -90.6031 271° West 322 371 24,000 774 Climbing Chicago Center
Fri 09:29:05 AM 43.1144 -90.7297 269° West 335 386 24,900 919 Climbing Chicago Center
Fri 09:30:07 AM 43.1147 -90.8575 270° West 339 390 25,900 968 Climbing Chicago Center
Fri 09:31:09 AM 43.1153 -90.9864 270° West 343 395 26,900 871 Climbing Chicago Center
Fri 09:32:11 AM 43.1161 -91.1419 270° West 344 396 27,700 581 Climbing Chicago Center
Fri 09:33:13 AM 43.1161 -91.2756 270° West 354 407 28,100 532 Climbing Chicago Center
Fri 09:34:15 AM 43.1161 -91.4108 270° West 360 414 28,800 672 Climbing Chicago Center
Fri 09:35:18 AM 43.1111 -91.5450 267° West 362 417 29,500 672 Climbing Minneapolis Center
Fri 09:36:20 AM 43.1008 -91.7058 265° West 361 415 30,200 683 Climbing Minneapolis Center
Fri 09:37:21 AM 43.0922 -91.8386 265° West 359 413 30,900 537 Climbing Minneapolis Center
Fri 09:38:23 AM 43.0836 -91.9725 265° West 358 412 31,300 397 Climbing Minneapolis Center
Fri 09:39:37 AM 43.0758 -92.1047 265° West 356 410 31,800 309 Climbing Minneapolis Center
Fri 09:40:39 AM 43.0656 -92.2644 265° West 357 411 32,000 98 Climbing Minneapolis Center
Fri 09:41:40 AM 43.0550 -92.4314 265° West 368 423 32,000  Level Minneapolis Center
Fri 09:42:42 AM 43.0458 -92.5731 265° West 378 435 32,000  Level Minneapolis Center
Fri 09:43:44 AM 43.0353 -92.7142 264° West 377 434 32,000  Level Minneapolis Center
Fri 09:44:45 AM 43.0264 -92.8564 265° West 379 436 32,000  Level Minneapolis Center
Fri 09:45:47 AM 43.0158 -92.9989 264° West 380 437 32,000  Level Minneapolis Center
Fri 09:46:49 AM 43.0061 -93.1411 265° West 380 437 32,000  Level Minneapolis Center
Fri 09:47:50 AM 42.9936 -93.3125 264° West 382 440 32,000  Level Minneapolis Center
Fri 09:48:52 AM 42.9833 -93.4561 264° West 382 440 32,000  Level Minneapolis Center
Fri 09:50:06 AM 42.9731 -93.5986 264° West 382 440 32,000  Level Minneapolis Center
Fri 09:51:08 AM 42.9592 -93.7733 264° West 386 444 32,000  Level Minneapolis Center
Fri 09:52:09 AM 42.9492 -93.9189 265° West 389 448 32,000  Level Minneapolis Center
Fri 09:53:11 AM 42.9381 -94.0656 264° West 391 450 32,000  Level Minneapolis Center
Fri 09:54:13 AM 42.9233 -94.2422 264° West 394 453 32,000  Level Minneapolis Center
Fri 09:55:14 AM 42.9083 -94.3900 262° West 397 457 32,000  Level Minneapolis Center
Fri 09:56:16 AM 42.8958 -94.5378 263° West 396 456 32,000  Level Minneapolis Center
Fri 09:57:18 AM 42.8853 -94.6819 264° West 391 450 32,000  Level Minneapolis Center
Fri 09:58:19 AM 42.8731 -94.8300 264° West 392 451 32,000  Level Minneapolis Center
Fri 09:59:21 AM 42.8564 -95.0103 263° West 398 458 32,000  Level Minneapolis Center
Fri 10:00:35 AM 42.8436 -95.1594 263° West 398 458 32,000  Level Minneapolis Center
Fri 10:01:37 AM 42.8275 -95.3364 263° West 394 453 32,000  Level Minneapolis Center
Fri 10:02:39 AM 42.8139 -95.4847 263° West 395 455 32,000  Level Minneapolis Center
Fri 10:03:40 AM 42.8003 -95.6356 263° West 400 460 32,000  Level Minneapolis Center
Fri 10:04:42 AM 42.7858 -95.7853 263° West 400 460 32,000  Level Minneapolis Center
Fri 10:05:44 AM 42.7719 -95.9381 263° West 405 466 32,000  Level Minneapolis Center
Fri 10:06:45 AM 42.7542 -96.1181 262° West 402 463 32,000  Level Minneapolis Center
Fri 10:07:59 AM 42.7389 -96.2689 262° West 403 464 32,000  Level Minneapolis Center
Fri 10:09:01 AM 42.7206 -96.4483 262° West 400 460 32,000  Level Minneapolis Center
Fri 10:10:03 AM 42.7050 -96.5994 262° West 403 464 32,000  Level Minneapolis Center
Fri 10:11:17 AM 42.6903 -96.7428 262° West 401 461 32,000  Level Minneapolis Center
Fri 10:12:19 AM 42.6719 -96.9206 262° West 399 459 32,000  Level Minneapolis Center
Fri 10:13:21 AM 42.6525 -97.0983 262° West 399 459 32,000  Level Minneapolis Center
Fri 10:14:23 AM 42.6361 -97.2483 262° West 401 461 32,000  Level Minneapolis Center
Fri 10:15:24 AM 42.6206 -97.3978 262° West 401 461 32,000  Level Minneapolis Center
Fri 10:16:26 AM 42.6033 -97.5456 261° West 400 460 32,000  Level Minneapolis Center
Fri 10:17:28 AM 42.5875 -97.6950 262° West 400 460 32,000  Level Minneapolis Center
Fri 10:18:30 AM 42.5703 -97.8453 261° West 401 461 32,000  Level Minneapolis Center
Fri 10:19:32 AM 42.5492 -98.0236 261° West 400 460 32,000  Level Minneapolis Center
Fri 10:20:34 AM 42.5317 -98.1747 261° West 403 464 32,000  Level Minneapolis Center
Fri 10:21:36 AM 42.5147 -98.3250 261° West 404 465 32,000  Level Minneapolis Center
Fri 10:22:38 AM 42.4956 -98.4744 260° West 404 465 32,000  Level Minneapolis Center
Fri 10:23:40 AM 42.4775 -98.6258 261° West 407 468 32,000  Level Minneapolis Center
Fri 10:24:42 AM 42.4361 -98.7689 249° West 413 475 32,000  Level Minneapolis Center
Fri 10:25:44 AM 42.3756 -98.9022 238° Southwest 415 478 32,000  Level Minneapolis Center
Fri 10:26:46 AM 42.3028 -99.0633 239° Southwest 417 480 32,000  Level Minneapolis Center
Fri 10:27:47 AM 42.2431 -99.1956 239° Southwest 416 479 32,000  Level Minneapolis Center
Fri 10:28:50 AM 42.1831 -99.3267 238° Southwest 414 476 32,000  Level Minneapolis Center
Fri 10:29:27 AM 42.1461 -99.4083 239° Southwest 417 480 32,000  Level Denver Center
Fri 10:31:30 AM 42.0272 -99.6694 239° Southwest 410 472 32,000  Level Denver Center
Fri 10:32:32 AM 41.9692 -99.8289 244° Southwest 413 475 32,000  Level Denver Center
Fri 10:33:34 AM 41.9217 -99.9600 244° Southwest 412 474 32,000  Level Denver Center
Fri 10:34:36 AM 41.8667 -100.1119 244° Southwest 408 470 32,000  Level Denver Center
Fri 10:35:38 AM 41.8192 -100.2433 244° Southwest 409 471 32,000  Level Denver Center
Fri 10:36:40 AM 41.7633 -100.3972 244° Southwest 412 474 32,000  Level Denver Center
Fri 10:37:42 AM 41.7153 -100.5275 244° Southwest 410 472 32,000  Level Denver Center
Fri 10:38:44 AM 41.6583 -100.6797 243° Southwest 411 473 32,000  Level Denver Center
Fri 10:39:46 AM 41.6106 -100.8111 244° Southwest 412 474 32,000  Level Denver Center
Fri 10:40:48 AM 41.5536 -100.9639 244° Southwest 413 475 32,000  Level Denver Center
Fri 10:41:50 AM 41.5053 -101.0939 244° Southwest 413 475 32,000  Level Denver Center
Fri 10:42:52 AM 41.4475 -101.2450 243° Southwest 411 473 32,000  Level Denver Center
Fri 10:43:54 AM 41.3989 -101.3761 244° Southwest 413 475 32,000  Level Denver Center
Fri 10:44:56 AM 41.3403 -101.5275 243° Southwest 415 478 32,000  Level Denver Center
Fri 10:45:58 AM 41.2928 -101.6567 244° Southwest 411 473 32,000  Level Denver Center
Fri 10:47:00 AM 41.2342 -101.8081 243° Southwest 413 475 32,000  Level Denver Center
Fri 10:48:02 AM 41.1831 -101.9375 242° Southwest 413 475 32,000  Level Denver Center
Fri 10:49:04 AM 41.1253 -102.0883 243° Southwest 412 474 32,000  Level Denver Center
Fri 10:50:06 AM 41.0744 -102.2181 243° Southwest 414 476 32,000  Level Denver Center
Fri 10:51:08 AM 41.0150 -102.3717 243° Southwest 418 481 32,000  Level Denver Center
Fri 10:52:10 AM 40.9633 -102.5008 242° Southwest 417 480 32,000  Level Denver Center
Fri 10:53:12 AM 40.9111 -102.6306 242° Southwest 419 482 32,000  Level Denver Center
Fri 10:54:14 AM 40.8525 -102.7828 243° Southwest 418 481 32,000  Level Denver Center
Fri 10:55:16 AM 40.7997 -102.9114 242° Southwest 417 480 32,000  Level Denver Center
Fri 10:56:18 AM 40.7378 -103.0686 243° Southwest 422 486 32,000  Level Denver Center
Fri 10:57:20 AM 40.6842 -103.2042 242° Southwest 416 479 32,000 -629 Level Denver Center
Fri 10:58:22 AM 40.6278 -103.3417 242° Southwest 423 487 30,700 -2,129 Descending Denver Center
Fri 10:59:24 AM 40.5728 -103.4778 242° Southwest 420 483 27,600 -2,952 Descending Denver Center
Fri 11:00:26 AM 40.5175 -103.6111 241° Southwest 412 474 24,600 -2,903 Descending Denver Center
Fri 11:01:28 AM 40.4650 -103.7389 242° Southwest 398 458 21,600 -3,145 Descending Denver Center
Fri 11:02:30 AM 40.4083 -103.8814 242° Southwest 385 443 18,100 -2,371 Descending Denver Center
Fri 11:03:32 AM 40.3606 -103.9922 241° Southwest 348 400 16,700 -1,597 Descending Denver Center
Fri 11:04:34 AM 40.2908 -104.0717 221° Southwest 304 350 14,800 -1,728 Descending Denver Center
Fri 11:05:37 AM 40.2097 -104.1056 198° South 300 345 13,100 -871 Descending Denver Center
Fri 11:06:38 AM 40.1222 -104.1253 190° South 295 339 13,000 -242 Descending Denver Center
Fri 11:07:41 AM 40.0444 -104.1392 188° South 286 329 12,600 -816 Descending Denver Center
Fri 11:08:43 AM 39.9781 -104.1703 200° South 258 297 11,300 -1,258 Descending Denver Center
Fri 11:09:45 AM 39.9469 -104.2508 243° Southwest 239 275 10,000 -774 Descending Denver Center
Fri 11:10:47 AM 39.9233 -104.3344 250° West 246 283 9,700 -718 Descending Denver Center
Fri 11:11:42 AM 39.9000 -104.4167 250° West 258 297 8,600 -991 Descending Denver TRACON
Fri 11:12:36 AM 39.8833 -104.4833 252° West 212 244 7,900 -1,200 Descending Denver TRACON
Fri 11:13:42 AM 39.8833 -104.5500 270° West 163 188 6,200 -1,143 Descending Denver TRACON
Fri 11:14:42 AM 39.8833 -104.6000 270° West 144 166 5,500 -700 Descending Denver TRACON
Fri 11:17:00 AM 39.8500 -104.6667 322° Northwest  Level FlightAware
Fri 11:24:00 AM 39.8617 -104.6732 322° Northwest  Level Estimated
Fri 11:25:00 AM 39.8617 -104.6732 322° Northwest  Level Estimated

Login

Don't have an account? Register now (free) for customized features, flight alerts, and more!